sensor_id;sensor_type;location;lat;lon;timestamp;temperature;humidity
48734;DHT22;34530;52.084;5.146;2022-11-03T00:02:16;19.20;69.40
48734;DHT22;34530;52.084;5.146;2022-11-03T00:04:41;19.20;69.40
48734;DHT22;34530;52.084;5.146;2022-11-03T00:07:08;19.10;69.20
48734;DHT22;34530;52.084;5.146;2022-11-03T00:09:34;19.20;69.30
48734;DHT22;34530;52.084;5.146;2022-11-03T00:12:00;19.10;69.20
48734;DHT22;34530;52.084;5.146;2022-11-03T00:14:26;19.20;69.30
48734;DHT22;34530;52.084;5.146;2022-11-03T00:16:52;19.10;69.20
48734;DHT22;34530;52.084;5.146;2022-11-03T00:19:18;19.20;69.20
48734;DHT22;34530;52.084;5.146;2022-11-03T00:21:44;19.10;69.10
48734;DHT22;34530;52.084;5.146;2022-11-03T00:24:10;19.10;69.10
48734;DHT22;34530;52.084;5.146;2022-11-03T00:26:37;19.10;69.10
48734;DHT22;34530;52.084;5.146;2022-11-03T00:29:08;19.10;69.10
48734;DHT22;34530;52.084;5.146;2022-11-03T00:31:36;19.10;69.00
48734;DHT22;34530;52.084;5.146;2022-11-03T00:34:03;19.10;69.00
48734;DHT22;34530;52.084;5.146;2022-11-03T00:36:34;19.10;69.00
48734;DHT22;34530;52.084;5.146;2022-11-03T00:39:00;19.10;69.00
48734;DHT22;34530;52.084;5.146;2022-11-03T00:41:26;19.10;69.00
48734;DHT22;34530;52.084;5.146;2022-11-03T00:43:52;19.10;69.00
48734;DHT22;34530;52.084;5.146;2022-11-03T00:46:19;19.10;69.00
48734;DHT22;34530;52.084;5.146;2022-11-03T00:48:46;19.00;68.90
48734;DHT22;34530;52.084;5.146;2022-11-03T00:51:23;19.00;68.90
48734;DHT22;34530;52.084;5.146;2022-11-03T00:53:56;19.00;68.80
48734;DHT22;34530;52.084;5.146;2022-11-03T00:58:49;19.00;68.90
48734;DHT22;34530;52.084;5.146;2022-11-03T01:01:17;19.00;68.90
48734;DHT22;34530;52.084;5.146;2022-11-03T01:03:45;19.00;68.90
48734;DHT22;34530;52.084;5.146;2022-11-03T01:06:32;19.00;68.90
48734;DHT22;34530;52.084;5.146;2022-11-03T01:09:33;18.90;68.80
48734;DHT22;34530;52.084;5.146;2022-11-03T01:14:39;18.90;68.90
48734;DHT22;34530;52.084;5.146;2022-11-03T01:17:17;18.90;68.90
48734;DHT22;34530;52.084;5.146;2022-11-03T01:19:43;18.90;68.90
48734;DHT22;34530;52.084;5.146;2022-11-03T01:22:09;18.90;69.00
48734;DHT22;34530;52.084;5.146;2022-11-03T01:24:35;18.90;68.90
48734;DHT22;34530;52.084;5.146;2022-11-03T01:27:01;18.90;68.90
48734;DHT22;34530;52.084;5.146;2022-11-03T01:29:26;18.90;68.90
48734;DHT22;34530;52.084;5.146;2022-11-03T01:31:52;18.90;69.70
48734;DHT22;34530;52.084;5.146;2022-11-03T01:34:19;18.90;69.00
48734;DHT22;34530;52.084;5.146;2022-11-03T01:36:46;18.90;69.00
48734;DHT22;34530;52.084;5.146;2022-11-03T01:39:16;18.90;69.00
48734;DHT22;34530;52.084;5.146;2022-11-03T01:41:44;18.90;69.00
48734;DHT22;34530;52.084;5.146;2022-11-03T01:46:43;18.90;69.00
48734;DHT22;34530;52.084;5.146;2022-11-03T01:51:39;18.80;69.00
48734;DHT22;34530;52.084;5.146;2022-11-03T01:54:10;18.80;69.10
48734;DHT22;34530;52.084;5.146;2022-11-03T01:56:39;18.80;69.10
48734;DHT22;34530;52.084;5.146;2022-11-03T01:59:06;18.80;69.10
48734;DHT22;34530;52.084;5.146;2022-11-03T02:01:32;18.80;69.20
48734;DHT22;34530;52.084;5.146;2022-11-03T02:04:08;18.80;69.20
48734;DHT22;34530;52.084;5.146;2022-11-03T02:06:35;18.80;69.20
48734;DHT22;34530;52.084;5.146;2022-11-03T02:09:04;18.80;69.20
48734;DHT22;34530;52.084;5.146;2022-11-03T02:11:33;18.80;69.20
48734;DHT22;34530;52.084;5.146;2022-11-03T02:14:18;18.80;69.20
48734;DHT22;34530;52.084;5.146;2022-11-03T02:16:55;18.70;69.20
48734;DHT22;34530;52.084;5.146;2022-11-03T02:19:31;18.70;69.20
48734;DHT22;34530;52.084;5.146;2022-11-03T02:27:53;18.70;69.20
48734;DHT22;34530;52.084;5.146;2022-11-03T02:30:19;18.70;69.30
48734;DHT22;34530;52.084;5.146;2022-11-03T02:32:58;18.70;69.40
48734;DHT22;34530;52.084;5.146;2022-11-03T02:38:09;18.70;69.30
48734;DHT22;34530;52.084;5.146;2022-11-03T02:40:40;18.70;69.40
48734;DHT22;34530;52.084;5.146;2022-11-03T02:43:08;18.70;69.30
48734;DHT22;34530;52.084;5.146;2022-11-03T02:45:34;18.70;69.30
48734;DHT22;34530;52.084;5.146;2022-11-03T02:48:02;18.70;69.40
48734;DHT22;34530;52.084;5.146;2022-11-03T02:50:31;18.60;69.30
48734;DHT22;34530;52.084;5.146;2022-11-03T02:52:58;18.60;69.40
48734;DHT22;34530;52.084;5.146;2022-11-03T03:03:27;18.60;69.40
48734;DHT22;34530;52.084;5.146;2022-11-03T03:06:00;18.60;69.30
48734;DHT22;34530;52.084;5.146;2022-11-03T03:08:29;18.60;69.40
48734;DHT22;34530;52.084;5.146;2022-11-03T03:10:56;18.60;69.30
48734;DHT22;34530;52.084;5.146;2022-11-03T03:13:24;18.60;69.30
48734;DHT22;34530;52.084;5.146;2022-11-03T03:16:10;18.60;69.30
48734;DHT22;34530;52.084;5.146;2022-11-03T03:19:02;18.60;69.30
48734;DHT22;34530;52.084;5.146;2022-11-03T03:21:41;18.60;69.30
48734;DHT22;34530;52.084;5.146;2022-11-03T03:24:17;18.60;69.30
48734;DHT22;34530;52.084;5.146;2022-11-03T03:26:46;18.50;69.30
48734;DHT22;34530;52.084;5.146;2022-11-03T03:29:24;18.50;69.30
48734;DHT22;34530;52.084;5.146;2022-11-03T03:31:56;18.50;69.30
48734;DHT22;34530;52.084;5.146;2022-11-03T03:34:24;18.50;69.20
48734;DHT22;34530;52.084;5.146;2022-11-03T03:36:52;18.50;69.20
48734;DHT22;34530;52.084;5.146;2022-11-03T03:39:20;18.50;69.20
48734;DHT22;34530;52.084;5.146;2022-11-03T03:41:47;18.50;70.00
48734;DHT22;34530;52.084;5.146;2022-11-03T03:44:14;18.50;69.30
48734;DHT22;34530;52.084;5.146;2022-11-03T03:46:54;18.50;69.20
48734;DHT22;34530;52.084;5.146;2022-11-03T03:49:21;18.50;69.20
48734;DHT22;34530;52.084;5.146;2022-11-03T03:51:47;18.50;69.30
48734;DHT22;34530;52.084;5.146;2022-11-03T03:54:14;18.50;69.30
48734;DHT22;34530;52.084;5.146;2022-11-03T03:56:47;18.50;69.30
48734;DHT22;34530;52.084;5.146;2022-11-03T03:59:15;18.50;69.20
48734;DHT22;34530;52.084;5.146;2022-11-03T04:01:40;18.50;69.30
48734;DHT22;34530;52.084;5.146;2022-11-03T04:04:06;18.40;69.20
48734;DHT22;34530;52.084;5.146;2022-11-03T04:06:31;18.40;69.20
48734;DHT22;34530;52.084;5.146;2022-11-03T04:08:57;18.40;69.20
48734;DHT22;34530;52.084;5.146;2022-11-03T04:11:22;18.40;69.20
48734;DHT22;34530;52.084;5.146;2022-11-03T04:14:10;18.40;69.20
48734;DHT22;34530;52.084;5.146;2022-11-03T04:16:54;18.40;69.20
48734;DHT22;34530;52.084;5.146;2022-11-03T04:19:38;18.40;69.20
48734;DHT22;34530;52.084;5.146;2022-11-03T04:22:26;18.40;69.20
48734;DHT22;34530;52.084;5.146;2022-11-03T04:24:52;18.40;69.20
48734;DHT22;34530;52.084;5.146;2022-11-03T04:27:26;18.40;69.20
48734;DHT22;34530;52.084;5.146;2022-11-03T04:29:56;18.40;69.20
48734;DHT22;34530;52.084;5.146;2022-11-03T04:32:22;18.40;69.20
48734;DHT22;34530;52.084;5.146;2022-11-03T04:34:48;18.40;69.20
48734;DHT22;34530;52.084;5.146;2022-11-03T04:37:14;18.40;69.20
48734;DHT22;34530;52.084;5.146;2022-11-03T04:39:40;18.40;69.20
48734;DHT22;34530;52.084;5.146;2022-11-03T04:42:20;18.30;69.20
48734;DHT22;34530;52.084;5.146;2022-11-03T04:44:47;18.40;69.20
48734;DHT22;34530;52.084;5.146;2022-11-03T04:47:15;18.30;69.20
48734;DHT22;34530;52.084;5.146;2022-11-03T04:49:41;18.30;69.20
48734;DHT22;34530;52.084;5.146;2022-11-03T04:52:16;18.30;69.20
48734;DHT22;34530;52.084;5.146;2022-11-03T04:54:45;18.30;69.20
48734;DHT22;34530;52.084;5.146;2022-11-03T04:57:12;18.30;69.30
48734;DHT22;34530;52.084;5.146;2022-11-03T04:59:40;18.30;69.20
48734;DHT22;34530;52.084;5.146;2022-11-03T05:02:12;18.30;69.30
48734;DHT22;34530;52.084;5.146;2022-11-03T05:04:39;18.30;69.20
48734;DHT22;34530;52.084;5.146;2022-11-03T05:07:18;18.30;69.30
48734;DHT22;34530;52.084;5.146;2022-11-03T05:09:45;18.30;69.20
48734;DHT22;34530;52.084;5.146;2022-11-03T05:12:11;18.30;69.30
48734;DHT22;34530;52.084;5.146;2022-11-03T05:14:36;18.30;69.30
48734;DHT22;34530;52.084;5.146;2022-11-03T05:17:13;18.30;69.40
48734;DHT22;34530;52.084;5.146;2022-11-03T05:19:40;18.30;69.40
48734;DHT22;34530;52.084;5.146;2022-11-03T05:22:14;18.30;69.40
48734;DHT22;34530;52.084;5.146;2022-11-03T05:24:41;18.30;69.30
48734;DHT22;34530;52.084;5.146;2022-11-03T05:27:13;18.20;69.30
48734;DHT22;34530;52.084;5.146;2022-11-03T05:29:41;18.30;69.30
48734;DHT22;34530;52.084;5.146;2022-11-03T05:32:27;18.20;69.30
48734;DHT22;34530;52.084;5.146;2022-11-03T05:34:55;18.20;69.30
48734;DHT22;34530;52.084;5.146;2022-11-03T05:37:24;18.20;69.30
48734;DHT22;34530;52.084;5.146;2022-11-03T05:39:52;18.20;69.40
48734;DHT22;34530;52.084;5.146;2022-11-03T05:42:33;18.20;70.10
48734;DHT22;34530;52.084;5.146;2022-11-03T05:45:03;18.20;69.30
48734;DHT22;34530;52.084;5.146;2022-11-03T05:47:36;18.20;69.30
48734;DHT22;34530;52.084;5.146;2022-11-03T05:52:37;18.20;69.40
48734;DHT22;34530;52.084;5.146;2022-11-03T05:55:02;18.20;69.40
48734;DHT22;34530;52.084;5.146;2022-11-03T05:57:29;18.20;69.40
48734;DHT22;34530;52.084;5.146;2022-11-03T05:59:57;18.20;69.40
48734;DHT22;34530;52.084;5.146;2022-11-03T06:02:39;18.20;69.50
48734;DHT22;34530;52.084;5.146;2022-11-03T06:05:18;18.20;69.50
48734;DHT22;34530;52.084;5.146;2022-11-03T06:07:44;18.10;69.40
48734;DHT22;34530;52.084;5.146;2022-11-03T06:10:28;18.10;69.50
48734;DHT22;34530;52.084;5.146;2022-11-03T06:12:59;18.10;69.40
48734;DHT22;34530;52.084;5.146;2022-11-03T06:15:33;18.10;69.40
48734;DHT22;34530;52.084;5.146;2022-11-03T06:18:00;18.20;69.50
48734;DHT22;34530;52.084;5.146;2022-11-03T06:20:27;18.10;69.50
48734;DHT22;34530;52.084;5.146;2022-11-03T06:22:54;18.10;69.40
48734;DHT22;34530;52.084;5.146;2022-11-03T06:27:54;18.10;69.40
48734;DHT22;34530;52.084;5.146;2022-11-03T06:30:30;18.10;69.40
48734;DHT22;34530;52.084;5.146;2022-11-03T06:33:03;18.10;69.40
48734;DHT22;34530;52.084;5.146;2022-11-03T06:35:31;18.10;69.40
48734;DHT22;34530;52.084;5.146;2022-11-03T06:37:57;18.10;69.50
48734;DHT22;34530;52.084;5.146;2022-11-03T06:42:51;18.10;69.40
48734;DHT22;34530;52.084;5.146;2022-11-03T06:45:20;18.10;69.40
48734;DHT22;34530;52.084;5.146;2022-11-03T06:47:47;18.10;69.40
48734;DHT22;34530;52.084;5.146;2022-11-03T06:50:24;18.10;69.40
48734;DHT22;34530;52.084;5.146;2022-11-03T06:52:52;18.10;69.40
48734;DHT22;34530;52.084;5.146;2022-11-03T06:55:34;18.10;69.40
48734;DHT22;34530;52.084;5.146;2022-11-03T07:00:46;18.00;69.30
48734;DHT22;34530;52.084;5.146;2022-11-03T07:03:23;18.00;69.40
48734;DHT22;34530;52.084;5.146;2022-11-03T07:05:49;18.10;69.50
48734;DHT22;34530;52.084;5.146;2022-11-03T07:08:24;18.00;69.40
48734;DHT22;34530;52.084;5.146;2022-11-03T07:11:00;18.00;69.40
48734;DHT22;34530;52.084;5.146;2022-11-03T07:13:28;18.00;69.40
48734;DHT22;34530;52.084;5.146;2022-11-03T07:15:55;18.00;69.40
48734;DHT22;34530;52.084;5.146;2022-11-03T07:18:40;18.00;69.40
48734;DHT22;34530;52.084;5.146;2022-11-03T07:21:36;18.00;69.40
48734;DHT22;34530;52.084;5.146;2022-11-03T07:24:32;18.00;69.30
48734;DHT22;34530;52.084;5.146;2022-11-03T07:29:45;18.00;69.50
48734;DHT22;34530;52.084;5.146;2022-11-03T07:32:18;18.00;69.50
48734;DHT22;34530;52.084;5.146;2022-11-03T07:34:45;18.00;69.40
48734;DHT22;34530;52.084;5.146;2022-11-03T07:37:21;18.00;69.60
48734;DHT22;34530;52.084;5.146;2022-11-03T07:39:48;18.00;69.60
48734;DHT22;34530;52.084;5.146;2022-11-03T07:42:20;18.00;69.70
48734;DHT22;34530;52.084;5.146;2022-11-03T07:44:47;18.00;69.70
48734;DHT22;34530;52.084;5.146;2022-11-03T07:47:18;18.00;69.70
48734;DHT22;34530;52.084;5.146;2022-11-03T07:49:44;18.00;69.70
48734;DHT22;34530;52.084;5.146;2022-11-03T07:52:14;18.10;70.20
48734;DHT22;34530;52.084;5.146;2022-11-03T07:54:40;18.00;70.40
48734;DHT22;34530;52.084;5.146;2022-11-03T07:57:24;18.00;70.80
48734;DHT22;34530;52.084;5.146;2022-11-03T07:59:52;18.10;71.20
48734;DHT22;34530;52.084;5.146;2022-11-03T08:02:34;18.10;71.50
48734;DHT22;34530;52.084;5.146;2022-11-03T08:05:01;18.10;71.70
48734;DHT22;34530;52.084;5.146;2022-11-03T08:07:28;18.10;72.00
48734;DHT22;34530;52.084;5.146;2022-11-03T08:09:54;18.10;72.10
48734;DHT22;34530;52.084;5.146;2022-11-03T08:12:20;18.20;72.40
48734;DHT22;34530;52.084;5.146;2022-11-03T08:14:46;18.20;72.60
48734;DHT22;34530;52.084;5.146;2022-11-03T08:17:12;18.20;72.70
48734;DHT22;34530;52.084;5.146;2022-11-03T08:19:39;18.20;72.80
48734;DHT22;34530;52.084;5.146;2022-11-03T08:22:04;18.20;72.80
48734;DHT22;34530;52.084;5.146;2022-11-03T08:24:30;18.30;72.90
48734;DHT22;34530;52.084;5.146;2022-11-03T08:26:55;18.30;73.70
48734;DHT22;34530;52.084;5.146;2022-11-03T08:29:21;18.30;73.00
48734;DHT22;34530;52.084;5.146;2022-11-03T08:31:47;18.30;73.00
48734;DHT22;34530;52.084;5.146;2022-11-03T08:34:12;18.30;73.10
48734;DHT22;34530;52.084;5.146;2022-11-03T08:36:38;18.30;73.00
48734;DHT22;34530;52.084;5.146;2022-11-03T08:39:04;18.30;72.90
48734;DHT22;34530;52.084;5.146;2022-11-03T08:41:29;18.30;73.00
48734;DHT22;34530;52.084;5.146;2022-11-03T08:43:55;18.30;72.90
48734;DHT22;34530;52.084;5.146;2022-11-03T08:46:21;18.40;73.00
48734;DHT22;34530;52.084;5.146;2022-11-03T08:48:46;18.40;73.00
48734;DHT22;34530;52.084;5.146;2022-11-03T08:51:13;18.40;72.90
48734;DHT22;34530;52.084;5.146;2022-11-03T08:53:39;18.40;72.90
48734;DHT22;34530;52.084;5.146;2022-11-03T08:56:07;18.40;72.90
48734;DHT22;34530;52.084;5.146;2022-11-03T08:58:33;18.70;72.20
48734;DHT22;34530;52.084;5.146;2022-11-03T09:00:58;18.60;72.30
48734;DHT22;34530;52.084;5.146;2022-11-03T09:03:24;18.60;72.30
48734;DHT22;34530;52.084;5.146;2022-11-03T09:05:50;18.60;72.30
48734;DHT22;34530;52.084;5.146;2022-11-03T09:08:16;18.60;72.30
48734;DHT22;34530;52.084;5.146;2022-11-03T09:10:41;18.60;72.30
48734;DHT22;34530;52.084;5.146;2022-11-03T09:13:07;18.60;72.20
48734;DHT22;34530;52.084;5.146;2022-11-03T09:15:33;18.50;72.00
48734;DHT22;34530;52.084;5.146;2022-11-03T09:17:59;18.50;71.80
48734;DHT22;34530;52.084;5.146;2022-11-03T09:20:25;18.50;71.80
48734;DHT22;34530;52.084;5.146;2022-11-03T09:22:51;18.50;72.00
48734;DHT22;34530;52.084;5.146;2022-11-03T09:25:17;18.50;72.10
48734;DHT22;34530;52.084;5.146;2022-11-03T09:27:43;18.50;72.30
48734;DHT22;34530;52.084;5.146;2022-11-03T09:30:09;18.50;72.30
48734;DHT22;34530;52.084;5.146;2022-11-03T09:32:35;18.50;72.40
48734;DHT22;34530;52.084;5.146;2022-11-03T09:35:01;18.50;72.40
48734;DHT22;34530;52.084;5.146;2022-11-03T09:37:26;18.50;72.40
48734;DHT22;34530;52.084;5.146;2022-11-03T09:39:52;18.50;72.50
48734;DHT22;34530;52.084;5.146;2022-11-03T09:42:18;18.60;72.60
48734;DHT22;34530;52.084;5.146;2022-11-03T09:44:44;18.60;72.60
48734;DHT22;34530;52.084;5.146;2022-11-03T09:47:23;18.60;72.60
48734;DHT22;34530;52.084;5.146;2022-11-03T09:49:49;18.60;72.60
48734;DHT22;34530;52.084;5.146;2022-11-03T09:52:20;18.60;72.70
48734;DHT22;34530;52.084;5.146;2022-11-03T09:54:46;18.60;72.60
48734;DHT22;34530;52.084;5.146;2022-11-03T09:57:12;18.60;72.60
48734;DHT22;34530;52.084;5.146;2022-11-03T09:59:44;18.60;72.60
48734;DHT22;34530;52.084;5.146;2022-11-03T10:02:26;18.60;72.60
48734;DHT22;34530;52.084;5.146;2022-11-03T10:04:53;18.60;72.70
48734;DHT22;34530;52.084;5.146;2022-11-03T10:07:20;18.60;72.70
48734;DHT22;34530;52.084;5.146;2022-11-03T10:09:48;18.60;72.70
48734;DHT22;34530;52.084;5.146;2022-11-03T10:12:15;18.60;72.70
48734;DHT22;34530;52.084;5.146;2022-11-03T10:14:42;18.60;72.80
48734;DHT22;34530;52.084;5.146;2022-11-03T10:17:16;18.60;72.90
48734;DHT22;34530;52.084;5.146;2022-11-03T10:19:46;18.60;73.00
48734;DHT22;34530;52.084;5.146;2022-11-03T10:22:12;18.60;73.00
48734;DHT22;34530;52.084;5.146;2022-11-03T10:24:38;18.60;73.10
48734;DHT22;34530;52.084;5.146;2022-11-03T10:27:22;18.70;73.20
48734;DHT22;34530;52.084;5.146;2022-11-03T10:30:07;18.70;73.10
48734;DHT22;34530;52.084;5.146;2022-11-03T10:32:33;18.70;72.90
48734;DHT22;34530;52.084;5.146;2022-11-03T10:34:59;18.70;73.00
48734;DHT22;34530;52.084;5.146;2022-11-03T10:37:26;18.70;73.00
48734;DHT22;34530;52.084;5.146;2022-11-03T10:39:56;18.70;73.00
48734;DHT22;34530;52.084;5.146;2022-11-03T10:42:27;18.70;73.00
48734;DHT22;34530;52.084;5.146;2022-11-03T10:45:14;18.70;72.90
48734;DHT22;34530;52.084;5.146;2022-11-03T10:47:41;18.70;72.80
48734;DHT22;34530;52.084;5.146;2022-11-03T10:50:21;18.70;72.90
48734;DHT22;34530;52.084;5.146;2022-11-03T10:52:48;18.70;72.80
48734;DHT22;34530;52.084;5.146;2022-11-03T10:55:14;18.70;72.90
48734;DHT22;34530;52.084;5.146;2022-11-03T10:57:40;18.70;72.90
48734;DHT22;34530;52.084;5.146;2022-11-03T11:00:09;18.70;72.80
48734;DHT22;34530;52.084;5.146;2022-11-03T11:02:37;18.70;72.70
48734;DHT22;34530;52.084;5.146;2022-11-03T11:05:19;18.70;72.70
48734;DHT22;34530;52.084;5.146;2022-11-03T11:07:46;18.70;72.70
48734;DHT22;34530;52.084;5.146;2022-11-03T11:10:30;18.70;72.80
48734;DHT22;34530;52.084;5.146;2022-11-03T11:15:43;18.70;72.70
48734;DHT22;34530;52.084;5.146;2022-11-03T11:18:10;18.70;72.70
48734;DHT22;34530;52.084;5.146;2022-11-03T11:20:40;18.70;72.70
48734;DHT22;34530;52.084;5.146;2022-11-03T11:28:34;18.70;72.40
48734;DHT22;34530;52.084;5.146;2022-11-03T11:31:00;18.70;72.40
48734;DHT22;34530;52.084;5.146;2022-11-03T11:33:28;18.70;72.40
48734;DHT22;34530;52.084;5.146;2022-11-03T11:38:44;18.70;72.40
48734;DHT22;34530;52.084;5.146;2022-11-03T11:41:09;18.80;72.40
48734;DHT22;34530;52.084;5.146;2022-11-03T11:43:35;18.80;72.50
48734;DHT22;34530;52.084;5.146;2022-11-03T11:48:45;18.80;72.50
48734;DHT22;34530;52.084;5.146;2022-11-03T11:51:13;18.80;72.50
48734;DHT22;34530;52.084;5.146;2022-11-03T11:53:41;18.80;72.40
48734;DHT22;34530;52.084;5.146;2022-11-03T11:56:14;18.80;72.40
48734;DHT22;34530;52.084;5.146;2022-11-03T11:58:51;18.80;72.30
48734;DHT22;34530;52.084;5.146;2022-11-03T12:04:05;18.80;72.20
48734;DHT22;34530;52.084;5.146;2022-11-03T12:06:37;18.90;72.20
48734;DHT22;34530;52.084;5.146;2022-11-03T12:14:25;18.80;71.80
48734;DHT22;34530;52.084;5.146;2022-11-03T12:19:48;18.80;71.50
48734;DHT22;34530;52.084;5.146;2022-11-03T12:24:58;18.80;71.40
48734;DHT22;34530;52.084;5.146;2022-11-03T12:29:50;18.70;71.20
48734;DHT22;34530;52.084;5.146;2022-11-03T12:32:16;18.70;71.10
48734;DHT22;34530;52.084;5.146;2022-11-03T12:34:42;18.70;71.10
48734;DHT22;34530;52.084;5.146;2022-11-03T12:37:08;18.70;71.00
48734;DHT22;34530;52.084;5.146;2022-11-03T12:39:34;18.70;71.00
48734;DHT22;34530;52.084;5.146;2022-11-03T12:42:00;18.70;70.90
48734;DHT22;34530;52.084;5.146;2022-11-03T12:44:26;18.70;70.80
48734;DHT22;34530;52.084;5.146;2022-11-03T12:46:52;18.70;70.80
48734;DHT22;34530;52.084;5.146;2022-11-03T12:49:18;18.60;70.70
48734;DHT22;34530;52.084;5.146;2022-11-03T12:51:44;18.60;70.60
48734;DHT22;34530;52.084;5.146;2022-11-03T12:54:10;18.60;70.60
48734;DHT22;34530;52.084;5.146;2022-11-03T12:56:36;18.60;70.70
48734;DHT22;34530;52.084;5.146;2022-11-03T12:59:02;18.60;70.70
48734;DHT22;34530;52.084;5.146;2022-11-03T13:01:27;18.60;70.90
48734;DHT22;34530;52.084;5.146;2022-11-03T13:03:53;18.60;71.00
48734;DHT22;34530;52.084;5.146;2022-11-03T13:06:18;18.80;71.00
48734;DHT22;34530;52.084;5.146;2022-11-03T13:08:44;18.70;71.10
48734;DHT22;34530;52.084;5.146;2022-11-03T13:11:11;18.70;71.20
48734;DHT22;34530;52.084;5.146;2022-11-03T13:13:55;18.70;71.40
48734;DHT22;34530;52.084;5.146;2022-11-03T13:16:21;18.70;71.50
48734;DHT22;34530;52.084;5.146;2022-11-03T13:18:47;18.80;72.00
48734;DHT22;34530;52.084;5.146;2022-11-03T13:21:12;18.80;71.60
48734;DHT22;34530;52.084;5.146;2022-11-03T13:23:39;18.80;71.60
48734;DHT22;34530;52.084;5.146;2022-11-03T13:26:05;18.80;71.60
48734;DHT22;34530;52.084;5.146;2022-11-03T13:28:30;18.90;71.60
48734;DHT22;34530;52.084;5.146;2022-11-03T13:30:56;18.90;71.40
48734;DHT22;34530;52.084;5.146;2022-11-03T13:33:21;18.90;71.20
48734;DHT22;34530;52.084;5.146;2022-11-03T13:35:47;18.90;71.00
48734;DHT22;34530;52.084;5.146;2022-11-03T13:38:13;18.90;70.80
48734;DHT22;34530;52.084;5.146;2022-11-03T13:40:39;18.90;70.70
48734;DHT22;34530;52.084;5.146;2022-11-03T13:43:04;18.90;70.60
48734;DHT22;34530;52.084;5.146;2022-11-03T13:45:30;18.90;70.40
48734;DHT22;34530;52.084;5.146;2022-11-03T13:47:55;18.90;70.30
48734;DHT22;34530;52.084;5.146;2022-11-03T13:50:21;18.90;70.20
48734;DHT22;34530;52.084;5.146;2022-11-03T13:52:48;18.90;70.30
48734;DHT22;34530;52.084;5.146;2022-11-03T13:55:14;18.90;70.20
48734;DHT22;34530;52.084;5.146;2022-11-03T13:57:40;18.90;70.30
48734;DHT22;34530;52.084;5.146;2022-11-03T14:00:06;18.90;70.50
48734;DHT22;34530;52.084;5.146;2022-11-03T14:02:33;18.90;70.50
48734;DHT22;34530;52.084;5.146;2022-11-03T14:04:58;18.90;71.40
48734;DHT22;34530;52.084;5.146;2022-11-03T14:07:24;19.00;70.70
48734;DHT22;34530;52.084;5.146;2022-11-03T14:09:50;19.00;70.70
48734;DHT22;34530;52.084;5.146;2022-11-03T14:12:15;18.90;70.70
48734;DHT22;34530;52.084;5.146;2022-11-03T14:15:14;19.00;70.90
48734;DHT22;34530;52.084;5.146;2022-11-03T14:17:43;19.00;70.80
48734;DHT22;34530;52.084;5.146;2022-11-03T14:20:11;19.00;70.90
48734;DHT22;34530;52.084;5.146;2022-11-03T14:22:36;19.00;71.00
48734;DHT22;34530;52.084;5.146;2022-11-03T14:25:03;19.00;71.00
48734;DHT22;34530;52.084;5.146;2022-11-03T14:27:29;19.00;71.10
48734;DHT22;34530;52.084;5.146;2022-11-03T14:29:55;19.00;71.20
48734;DHT22;34530;52.084;5.146;2022-11-03T14:32:20;19.00;71.10
48734;DHT22;34530;52.084;5.146;2022-11-03T14:34:46;19.00;71.30
48734;DHT22;34530;52.084;5.146;2022-11-03T14:37:12;19.00;71.30
48734;DHT22;34530;52.084;5.146;2022-11-03T14:39:38;19.10;71.40
48734;DHT22;34530;52.084;5.146;2022-11-03T14:42:07;19.10;71.40
48734;DHT22;34530;52.084;5.146;2022-11-03T14:44:35;19.10;71.40
48734;DHT22;34530;52.084;5.146;2022-11-03T14:47:04;19.10;71.40
48734;DHT22;34530;52.084;5.146;2022-11-03T14:49:31;19.10;71.40
48734;DHT22;34530;52.084;5.146;2022-11-03T14:51:57;19.10;71.40
48734;DHT22;34530;52.084;5.146;2022-11-03T14:54:24;19.10;71.40
48734;DHT22;34530;52.084;5.146;2022-11-03T14:56:50;19.10;71.20
48734;DHT22;34530;52.084;5.146;2022-11-03T14:59:16;19.10;70.70
48734;DHT22;34530;52.084;5.146;2022-11-03T15:01:42;19.20;69.50
48734;DHT22;34530;52.084;5.146;2022-11-03T15:04:08;19.10;69.70
48734;DHT22;34530;52.084;5.146;2022-11-03T15:06:34;19.10;69.90
48734;DHT22;34530;52.084;5.146;2022-11-03T15:09:00;19.10;70.10
48734;DHT22;34530;52.084;5.146;2022-11-03T15:11:26;19.10;70.20
48734;DHT22;34530;52.084;5.146;2022-11-03T15:13:51;19.10;70.40
48734;DHT22;34530;52.084;5.146;2022-11-03T15:16:19;19.10;70.40
48734;DHT22;34530;52.084;5.146;2022-11-03T15:18:45;19.10;70.40
48734;DHT22;34530;52.084;5.146;2022-11-03T15:21:11;19.10;70.50
48734;DHT22;34530;52.084;5.146;2022-11-03T15:23:36;19.10;70.70
48734;DHT22;34530;52.084;5.146;2022-11-03T15:26:02;19.10;70.70
48734;DHT22;34530;52.084;5.146;2022-11-03T15:28:28;19.40;70.20
48734;DHT22;34530;52.084;5.146;2022-11-03T15:30:53;19.30;70.50
48734;DHT22;34530;52.084;5.146;2022-11-03T15:33:19;19.20;70.40
48734;DHT22;34530;52.084;5.146;2022-11-03T15:35:44;19.20;70.60
48734;DHT22;34530;52.084;5.146;2022-11-03T15:38:10;19.20;70.70
48734;DHT22;34530;52.084;5.146;2022-11-03T15:40:37;19.20;70.80
48734;DHT22;34530;52.084;5.146;2022-11-03T15:43:02;19.20;70.80
48734;DHT22;34530;52.084;5.146;2022-11-03T15:45:33;19.20;70.80
48734;DHT22;34530;52.084;5.146;2022-11-03T15:47:59;19.20;70.90
48734;DHT22;34530;52.084;5.146;2022-11-03T15:50:25;19.20;70.90
48734;DHT22;34530;52.084;5.146;2022-11-03T15:52:52;19.20;70.90
48734;DHT22;34530;52.084;5.146;2022-11-03T15:55:18;19.20;70.90
48734;DHT22;34530;52.084;5.146;2022-11-03T15:57:44;19.20;71.00
48734;DHT22;34530;52.084;5.146;2022-11-03T16:00:10;19.20;71.10
48734;DHT22;34530;52.084;5.146;2022-11-03T16:02:37;19.20;71.00
48734;DHT22;34530;52.084;5.146;2022-11-03T16:05:03;19.20;71.00
48734;DHT22;34530;52.084;5.146;2022-11-03T16:07:29;19.20;71.10
48734;DHT22;34530;52.084;5.146;2022-11-03T16:09:55;19.20;71.00
48734;DHT22;34530;52.084;5.146;2022-11-03T16:12:22;19.20;70.60
48734;DHT22;34530;52.084;5.146;2022-11-03T16:14:51;19.20;70.40
48734;DHT22;34530;52.084;5.146;2022-11-03T16:17:18;19.10;70.20
48734;DHT22;34530;52.084;5.146;2022-11-03T16:19:44;19.10;70.00
48734;DHT22;34530;52.084;5.146;2022-11-03T16:22:09;19.10;69.90
48734;DHT22;34530;52.084;5.146;2022-11-03T16:24:35;19.10;70.00
48734;DHT22;34530;52.084;5.146;2022-11-03T16:27:01;19.10;70.00
48734;DHT22;34530;52.084;5.146;2022-11-03T16:29:27;19.10;70.00
48734;DHT22;34530;52.084;5.146;2022-11-03T16:31:53;19.00;69.90
48734;DHT22;34530;52.084;5.146;2022-11-03T16:34:18;19.00;69.90
48734;DHT22;34530;52.084;5.146;2022-11-03T16:36:44;19.00;69.90
48734;DHT22;34530;52.084;5.146;2022-11-03T16:39:10;19.00;69.90
48734;DHT22;34530;52.084;5.146;2022-11-03T16:41:36;19.00;69.90
48734;DHT22;34530;52.084;5.146;2022-11-03T16:44:02;19.00;69.90
48734;DHT22;34530;52.084;5.146;2022-11-03T16:46:28;19.00;69.90
48734;DHT22;34530;52.084;5.146;2022-11-03T16:48:54;18.90;69.80
48734;DHT22;34530;52.084;5.146;2022-11-03T16:51:20;18.90;69.90